Airfield :
LOGIN :

Register | Disclaimer

   EN    FR    IT 

 










Legend :    VFR   Marginal VFR   IFR   Intensive IFR   Very Intensive IFR
Visi :
Ceiling :
>= 8 km
>= 3000ft
5 to 8 km
1000 to 3000 ft
1500m to 5 km
500 to 1000 ft
800 to 1500m
200 to 500 ft
< 800m
< 200 ft
Symbols :   Thunderstorms  Fog  Heavy snow  Heavy precipitations  Wind > 20 kt
SIGMETs :     Misc.  Thunderstorms  Icing  Turbulence  Mountain Waves  Volcanic Ashes







- Airport Elevation : 789 ft
- IATA code : BZO


LIPB - Bolzano

CURRENT METAR :
  • 260450Z VRB02KT 5000 BR FEW010 SCT080 11/11 Q1014

TAF TAF LIPB
Valid from the 26 at 06:00 until the 27 at 06:00 UTC


260500Z 2606/2706 VRB05KT 7000 SCT030 BKN050
TEMPO 2606/2610 RA
TEMPO 2610/2618 3000 TSRA
TEMPO 2618/2621 RA
No reported NOTAMs for that airfield.
2 SIGMETs reported for the Milano FIR (LIMM) :
 
Severe turbulence
LIMM SIGMET 4 VALID 260445/260845 LIIP
LIMM MILANO FIR SEV TURB FCST ENTIRE FIR FL220/380 MOV E WKN=
Embedded thunderstorms
LIMM SIGMET 3 VALID 260445/260845 LIIP
LIMM MILANO FIR EMBD TS FCST N OF LINE N4407 E00650 - N4507 E01311 TOP FL320 STNR NC=



MET'MAP, your aeronautical weather chart ! - Copyright ORBIFLY December 2007 - Disclaimer

ORBIFLY MET'MAP TEAM :

Programming & Development : Alexandra Zaïnal
Concept & Development : Baudouin d'Aumeries
Co-Development & Prog : Marc-Olivier Méhu
Technical & hardware support : Manuel Goepfert

Contact : metmap@orbifly.com




SOURCES & CREDITS :

   NOAA